Time;durP1;ratioP1;P1;durP2;ratioP2;P2;SDS_P1;SDS_P2;PMS_P1;PMS_P2;Temp;Humidity;BMP_temperature;BMP_pressure;BME280_temperature;BME280_humidity;BME280_pressure;Samples;Min_cycle;Max_cycle;Signal;HPM_P1;HPM_P2
2022/11/29 00:01:37;;;;;;;42.00;19.70;;;0.20;99.90;;;;;;4162871;28;20328;-67
2022/11/29 00:03:38;;;;;;;45.27;20.53;;;0.20;99.90;;;;;;4162652;28;20674;-65
2022/11/29 00:05:39;;;;;;;40.33;19.63;;;0.10;99.90;;;;;;4163496;28;20393;-64
2022/11/29 00:07:40;;;;;;;38.77;19.00;;;0.20;99.90;;;;;;4162228;28;20845;-65
2022/11/29 00:09:41;;;;;;;39.97;18.10;;;0.20;99.90;;;;;;4163562;28;20274;-65
2022/11/29 00:14:03;;;;;;;36.13;17.33;;;0.20;99.90;;;;;;4163291;28;20337;-67
2022/11/29 00:16:10;;;;;;;44.73;19.77;;;0.20;99.90;;;;;;4162544;28;20255;-65
2022/11/29 00:18:11;;;;;;;38.17;17.87;;;0.20;99.90;;;;;;4163209;28;20805;-66
2022/11/29 00:20:13;;;;;;;38.63;18.60;;;0.20;99.90;;;;;;4161805;28;20325;-66
2022/11/29 00:22:14;;;;;;;38.53;18.90;;;0.20;99.90;;;;;;4162744;28;20317;-64
2022/11/29 00:24:15;;;;;;;35.13;18.10;;;0.20;99.90;;;;;;4163027;28;20286;-64
2022/11/29 00:26:17;;;;;;;34.13;17.67;;;0.20;99.90;;;;;;4162853;28;20259;-64
2022/11/29 00:28:18;;;;;;;37.53;18.17;;;0.20;99.90;;;;;;4163448;28;20282;-65
2022/11/29 00:30:20;;;;;;;30.27;15.57;;;0.20;99.90;;;;;;4162138;28;20263;-65
2022/11/29 00:32:21;;;;;;;30.33;15.80;;;0.10;99.90;;;;;;4162968;28;20275;-66
2022/11/29 00:34:22;;;;;;;34.17;16.90;;;0.10;99.90;;;;;;4161952;28;20278;-64
2022/11/29 00:36:24;;;;;;;35.13;15.47;;;0.10;99.90;;;;;;4163223;28;20274;-64
2022/11/29 00:38:26;;;;;;;30.83;16.13;;;0.10;99.90;;;;;;4176396;28;20376;-64
2022/11/29 00:40:27;;;;;;;35.77;15.07;;;0.10;99.90;;;;;;4163362;28;20320;-65
2022/11/29 00:42:29;;;;;;;34.70;16.70;;;0.10;99.90;;;;;;4144350;28;20275;-65
2022/11/29 00:44:30;;;;;;;36.87;18.03;;;0.10;99.90;;;;;;4162466;28;20286;-65
2022/11/29 00:46:31;;;;;;;35.60;17.60;;;0.00;99.90;;;;;;4161732;28;20287;-66
2022/11/29 00:48:33;;;;;;;41.23;20.83;;;0.00;99.90;;;;;;4162790;28;20262;-65
2022/11/29 00:50:34;;;;;;;42.00;18.93;;;0.00;99.90;;;;;;4162178;28;20336;-64
2022/11/29 00:52:35;;;;;;;36.50;18.20;;;-0.10;99.90;;;;;;4162136;28;20270;-65
2022/11/29 00:54:36;;;;;;;38.83;18.20;;;-0.10;99.90;;;;;;4162105;28;20670;-65
2022/11/29 00:56:37;;;;;;;33.80;17.13;;;-0.10;99.90;;;;;;4162412;28;20267;-65
2022/11/29 00:58:41;;;;;;;36.90;17.03;;;-0.10;99.90;;;;;;4162830;28;20329;-65
2022/11/29 01:00:43;;;;;;;33.60;15.53;;;-0.10;99.90;;;;;;4161722;28;20270;-66
2022/11/29 01:02:45;;;;;;;29.83;15.47;;;-0.10;99.90;;;;;;4162913;28;20259;-65
2022/11/29 01:04:46;;;;;;;33.90;15.83;;;-0.10;99.90;;;;;;4161192;28;20656;-65
2022/11/29 01:06:51;;;;;;;34.97;16.50;;;-0.10;99.90;;;;;;4162375;28;20333;-65
2022/11/29 01:08:52;;;;;;;28.10;15.53;;;-0.10;99.90;;;;;;4161304;28;20275;-64
2022/11/29 01:11:16;;;;;;;34.27;16.20;;;-0.10;99.90;;;;;;4144811;28;20361;-64
2022/11/29 01:13:17;;;;;;;30.73;15.47;;;-0.20;99.90;;;;;;4161509;28;20263;-66
2022/11/29 01:15:18;;;;;;;37.77;17.73;;;-0.20;99.90;;;;;;4162122;28;20278;-64
2022/11/29 01:17:19;;;;;;;37.10;15.77;;;-0.30;99.90;;;;;;4161381;28;20885;-65
2022/11/29 01:19:20;;;;;;;32.00;14.87;;;-0.30;99.90;;;;;;4162176;28;20275;-65
2022/11/29 01:21:23;;;;;;;37.63;16.87;;;-0.30;99.90;;;;;;4161626;28;20267;-65
2022/11/29 01:23:24;;;;;;;33.50;15.20;;;-0.40;99.90;;;;;;4162052;28;20270;-65
2022/11/29 01:25:25;;;;;;;33.27;16.73;;;-0.40;99.90;;;;;;4161596;28;20608;-65
2022/11/29 01:27:29;;;;;;;37.17;17.83;;;-0.60;99.90;;;;;;4162375;28;20654;-64
2022/11/29 01:29:30;;;;;;;36.00;16.03;;;-0.60;99.90;;;;;;4161551;28;20239;-65
2022/11/29 01:31:36;;;;;;;39.77;18.50;;;-0.70;99.90;;;;;;4160980;28;20263;-64
2022/11/29 01:33:37;;;;;;;41.23;17.73;;;-0.70;99.90;;;;;;4161872;28;20263;-64
2022/11/29 01:35:39;;;;;;;42.10;17.40;;;-0.70;99.90;;;;;;4161430;28;20259;-65
2022/11/29 01:37:40;;;;;;;35.43;16.50;;;-0.70;99.90;;;;;;4161555;28;20260;-65
2022/11/29 01:39:41;;;;;;;32.00;16.03;;;-0.70;99.90;;;;;;4161007;28;20309;-64
2022/11/29 01:41:42;;;;;;;39.73;17.00;;;-0.80;99.90;;;;;;4162165;28;20317;-64
2022/11/29 01:43:57;;;;;;;33.73;16.20;;;-0.80;99.90;;;;;;4161256;28;20642;-64
2022/11/29 01:45:58;;;;;;;35.23;16.77;;;-0.80;99.90;;;;;;4161614;28;20294;-64
2022/11/29 01:48:00;;;;;;;35.23;18.03;;;-0.90;99.90;;;;;;4160737;28;20337;-64
2022/11/29 01:50:02;;;;;;;42.17;17.77;;;-1.00;99.90;;;;;;4162313;28;20658;-65
2022/11/29 01:52:08;;;;;;;36.70;17.47;;;-0.90;99.90;;;;;;4143262;28;20283;-65
2022/11/29 01:54:11;;;;;;;35.40;17.77;;;-1.00;99.90;;;;;;4162009;28;20309;-65
2022/11/29 01:56:14;;;;;;;45.10;20.10;;;-0.90;99.90;;;;;;4161374;28;20328;-65
2022/11/29 01:58:15;;;;;;;36.80;17.50;;;-1.00;99.90;;;;;;4162083;28;20682;-65
2022/11/29 02:00:18;;;;;;;33.33;17.07;;;-1.00;99.90;;;;;;4160750;28;20282;-65
2022/11/29 02:02:26;;;;;;;33.33;16.13;;;-1.00;99.90;;;;;;4161871;28;20321;-65
2022/11/29 02:04:33;;;;;;;36.87;16.60;;;-1.00;99.90;;;;;;4160587;28;20746;-65
2022/11/29 02:06:38;;;;;;;35.60;16.83;;;-1.10;99.90;;;;;;4161540;28;20328;-63
2022/11/29 02:08:41;;;;;;;38.30;17.10;;;-1.10;99.90;;;;;;4160778;28;20316;-65
2022/11/29 02:11:05;;;;;;;33.60;16.60;;;-1.10;99.90;;;;;;4161492;28;20605;-64
2022/11/29 02:13:41;;;;;;;40.90;17.70;;;-1.10;99.90;;;;;;4132288;28;20652;-65
2022/11/29 02:15:52;;;;;;;36.30;17.33;;;-1.20;99.90;;;;;;4161775;28;20326;-65
2022/11/29 02:18:09;;;;;;;41.20;19.20;;;-1.20;99.90;;;;;;4160175;28;20275;-65
2022/11/29 02:20:45;;;;;;;45.73;19.70;;;-1.20;99.90;;;;;;4161888;28;20037;-65
2022/11/29 02:23:01;;;;;;;41.23;17.70;;;-1.30;99.90;;;;;;4147552;28;20601;-65
2022/11/29 02:25:21;;;;;;;45.70;20.53;;;-1.30;99.90;;;;;;4143753;28;20353;-65
2022/11/29 02:27:52;;;;;;;36.50;17.93;;;-1.40;99.90;;;;;;4161051;28;20275;-65
2022/11/29 02:30:15;;;;;;;42.63;19.37;;;-1.30;99.90;;;;;;4161198;28;20313;-66
2022/11/29 02:32:53;;;;;;;44.33;19.70;;;-1.30;99.90;;;;;;4161279;28;20662;-65
2022/11/29 02:35:22;;;;;;;42.20;19.97;;;-1.30;99.90;;;;;;4142768;28;20752;-64
2022/11/29 02:38:08;;;;;;;48.70;19.53;;;-1.30;99.90;;;;;;4161734;28;20270;-65
2022/11/29 02:40:27;;;;;;;45.07;19.90;;;-1.30;99.90;;;;;;4151608;28;20745;-65
2022/11/29 02:42:48;;;;;;;43.90;21.00;;;-1.30;99.90;;;;;;4161635;28;20727;-65
2022/11/29 02:45:01;;;;;;;42.10;18.23;;;-1.30;99.90;;;;;;4164090;28;20298;-65
2022/11/29 02:47:11;;;;;;;40.27;19.50;;;-1.30;99.90;;;;;;4164240;28;20321;-65
2022/11/29 02:49:44;;;;;;;39.20;19.60;;;-1.40;99.90;;;;;;4164108;28;20332;-65
2022/11/29 02:51:56;;;;;;;32.43;16.83;;;-1.40;99.90;;;;;;4119001;28;20318;-66
2022/11/29 02:54:28;;;;;;;39.53;17.63;;;-1.40;99.90;;;;;;4163809;28;20297;-65
2022/11/29 02:56:51;;;;;;;40.50;17.00;;;-1.40;99.90;;;;;;4163694;28;20282;-64
2022/11/29 02:59:02;;;;;;;35.40;16.93;;;-1.40;99.90;;;;;;4164342;28;20294;-64
2022/11/29 03:01:17;;;;;;;39.37;17.10;;;-1.50;99.90;;;;;;4163474;28;20666;-64
2022/11/29 03:03:26;;;;;;;39.87;17.37;;;-1.50;99.90;;;;;;4164201;28;20290;-65
2022/11/29 03:05:36;;;;;;;38.47;17.87;;;-1.50;99.90;;;;;;4163331;28;20294;-65
2022/11/29 03:08:05;;;;;;;37.72;18.13;;;-1.50;99.90;;;;;;4146894;28;20856;-65
2022/11/29 03:10:28;;;;;;;36.33;17.23;;;-1.50;99.90;;;;;;4163559;28;20454;-65
2022/11/29 03:12:39;;;;;;;36.77;16.63;;;-1.50;99.90;;;;;;4164334;28;20294;-65
2022/11/29 03:14:40;;;;;;;40.03;18.03;;;-1.50;99.90;;;;;;4163430;28;20263;-65
2022/11/29 03:17:00;;;;;;;35.27;17.03;;;-1.50;99.90;;;;;;4164304;28;20263;-65
2022/11/29 03:19:20;;;;;;;38.78;17.52;;;-1.50;99.90;;;;;;4145629;28;20325;-65
2022/11/29 03:21:43;;;;;;;33.27;16.57;;;-1.50;99.90;;;;;;4164385;28;20037;-65
2022/11/29 03:24:01;;;;;;;35.57;16.37;;;-1.50;99.90;;;;;;4163338;28;20341;-65
2022/11/29 03:26:23;;;;;;;38.77;17.23;;;-1.60;99.90;;;;;;4164082;28;20923;-65
2022/11/29 03:28:33;;;;;;;38.87;17.57;;;-1.60;99.90;;;;;;4163741;28;20278;-65
2022/11/29 03:30:37;;;;;;;39.03;17.98;;;-1.60;99.90;;;;;;4163567;28;20262;-65
2022/11/29 03:33:11;;;;;;;43.17;19.73;;;-1.60;99.90;;;;;;4163320;28;20088;-65
2022/11/29 03:35:23;;;;;;;37.73;16.87;;;-1.60;99.90;;;;;;4162659;28;20275;-65
2022/11/29 03:37:51;;;;;;;36.60;17.17;;;-1.70;99.90;;;;;;4163976;28;20818;-64
2022/11/29 03:40:02;;;;;;;35.77;16.53;;;-1.70;99.90;;;;;;4162997;28;20274;-65
2022/11/29 03:42:11;;;;;;;36.17;16.40;;;-1.80;99.90;;;;;;4164215;28;20267;-64
2022/11/29 03:44:20;;;;;;;35.00;16.80;;;-1.80;99.90;;;;;;4162256;28;20441;-65
2022/11/29 03:46:37;;;;;;;31.13;14.90;;;-1.90;99.90;;;;;;4163859;28;20356;-65
2022/11/29 03:49:01;;;;;;;34.60;15.73;;;-1.90;99.90;;;;;;4162517;28;20325;-65
2022/11/29 03:51:18;;;;;;;35.03;15.27;;;-1.90;99.90;;;;;;4163810;28;20278;-66
2022/11/29 03:53:35;;;;;;;31.33;15.67;;;-1.90;99.90;;;;;;4145060;28;20835;-65
2022/11/29 03:55:53;;;;;;;36.47;16.30;;;-1.90;99.90;;;;;;4163895;28;20336;-65
2022/11/29 03:58:15;;;;;;;33.63;15.87;;;-2.00;99.90;;;;;;4162464;28;20283;-65
2022/11/29 04:00:17;;;;;;;28.77;13.83;;;-2.00;99.90;;;;;;4163142;28;20302;-65
2022/11/29 04:02:36;;;;;;;34.43;15.27;;;-2.00;99.90;;;;;;4162699;28;20266;-65
2022/11/29 04:05:05;;;;;;;37.57;15.50;;;-2.10;99.90;;;;;;4163613;28;20340;-64
2022/11/29 04:07:18;;;;;;;47.17;18.27;;;-2.20;99.90;;;;;;4162857;28;20409;-65
2022/11/29 04:09:57;;;;;;;40.97;17.63;;;-2.30;99.90;;;;;;4163135;28;20353;-66
2022/11/29 04:12:21;;;;;;;33.50;15.37;;;-2.40;99.90;;;;;;4163556;28;20263;-67
2022/11/29 04:15:09;;;;;;;38.30;15.10;;;-2.50;99.90;;;;;;4162491;28;20274;-65
2022/11/29 04:17:22;;;;;;;42.97;17.30;;;-2.50;99.90;;;;;;4112904;28;20280;-64
2022/11/29 04:19:29;;;;;;;36.07;16.23;;;-2.60;99.90;;;;;;4111850;28;20355;-66
2022/11/29 04:21:46;;;;;;;35.07;16.80;;;-2.70;99.90;;;;;;4116805;28;20363;-66
2022/11/29 04:24:24;;;;;;;36.27;17.33;;;-2.80;99.90;;;;;;4162376;28;20274;-67
2022/11/29 04:26:50;;;;;;;40.33;19.17;;;-2.70;99.90;;;;;;4162550;28;20270;-65
2022/11/29 04:29:09;;;;;;;43.43;19.43;;;-2.70;99.90;;;;;;4162642;28;20829;-65
2022/11/29 04:31:51;;;;;;;69.10;21.07;;;-2.80;99.90;;;;;;4162060;28;20382;-64
2022/11/29 04:34:31;;;;;;;139.00;25.97;;;-2.80;99.90;;;;;;4098735;28;20262;-65
2022/11/29 04:36:37;;;;;;;169.43;25.27;;;-2.90;99.90;;;;;;4140412;28;20278;-64
2022/11/29 04:39:00;;;;;;;197.73;27.13;;;-3.00;99.90;;;;;;4163224;28;20255;-65
2022/11/29 04:41:18;;;;;;;163.07;26.90;;;-3.00;99.90;;;;;;4162116;28;20255;-65
2022/11/29 04:43:45;;;;;;;124.30;25.73;;;-3.10;99.90;;;;;;4162976;28;20313;-65
2022/11/29 04:46:05;;;;;;;91.70;24.53;;;-3.20;99.90;;;;;;4161439;28;20640;-65
2022/11/29 04:48:21;;;;;;;107.07;25.30;;;-3.20;99.90;;;;;;4162446;28;20324;-64
2022/11/29 04:50:25;;;;;;;158.33;29.00;;;-3.20;99.90;;;;;;4162108;28;20332;-65
2022/11/29 04:52:50;;;;;;;142.50;25.83;;;-3.30;99.90;;;;;;4162378;28;20271;-65
2022/11/29 04:55:26;;;;;;;126.33;27.37;;;-3.30;99.90;;;;;;4162631;28;20324;-65
2022/11/29 04:57:52;;;;;;;263.30;32.07;;;-3.40;99.90;;;;;;4161348;28;20328;-68
2022/11/29 05:00:09;;;;;;;143.37;27.97;;;-3.40;99.90;;;;;;4162755;28;20312;-65
2022/11/29 05:02:16;;;;;;;197.50;30.00;;;-3.40;99.90;;;;;;4160685;28;20824;-66
2022/11/29 05:04:31;;;;;;;480.50;50.40;;;-3.40;99.90;;;;;;4160688;28;20283;-65
2022/11/29 05:06:53;;;;;;;322.13;39.93;;;-3.40;99.90;;;;;;4159935;28;20336;-65
2022/11/29 05:09:22;;;;;;;243.00;34.47;;;-3.40;99.90;;;;;;4161239;28;20329;-65
2022/11/29 05:11:44;;;;;;;207.20;32.27;;;-3.30;99.90;;;;;;4161248;28;20270;-67
2022/11/29 05:14:10;;;;;;;239.23;35.80;;;-3.30;99.90;;;;;;4162052;28;20820;-66
2022/11/29 05:16:28;;;;;;;278.13;39.33;;;-3.30;99.90;;;;;;4160382;28;20280;-65
2022/11/29 05:18:48;;;;;;;262.87;40.97;;;-3.30;99.90;;;;;;4160993;28;20333;-65
2022/11/29 05:21:19;;;;;;;332.00;51.83;;;-3.30;99.90;;;;;;4161844;28;20251;-67
2022/11/29 05:23:31;;;;;;;195.25;34.45;;;-3.40;99.90;;;;;;4161226;28;20809;-65
2022/11/29 05:25:59;;;;;;;247.07;35.03;;;-3.40;99.90;;;;;;4161026;28;20049;-66
2022/11/29 05:28:11;;;;;;;166.40;29.20;;;-3.40;99.90;;;;;;4161482;28;20687;-66
2022/11/29 05:30:23;;;;;;;258.20;32.70;;;-3.40;99.90;;;;;;4161891;28;21139;-66
2022/11/29 05:32:24;;;;;;;382.90;42.60;;;-3.50;99.90;;;;;;4160567;28;20291;-66
2022/11/29 05:34:44;;;;;;;279.60;35.27;;;-3.60;99.90;;;;;;4162069;28;20267;-66
2022/11/29 05:36:51;;;;;;;279.27;33.58;;;-3.60;99.90;;;;;;4160381;28;20673;-66
2022/11/29 05:39:09;;;;;;;283.30;38.37;;;-3.60;99.90;;;;;;4161677;28;20026;-64
2022/11/29 05:41:16;;;;;;;256.37;35.23;;;-3.60;99.90;;;;;;4160247;28;20286;-65
2022/11/29 05:43:42;;;;;;;169.27;33.53;;;-3.50;99.90;;;;;;4161786;28;20262;-65
2022/11/29 05:45:49;;;;;;;289.10;38.77;;;-3.50;99.90;;;;;;4160735;28;20793;-66
2022/11/29 05:48:08;;;;;;;169.93;35.03;;;-3.40;99.90;;;;;;4161389;28;20698;-67
2022/11/29 05:50:14;;;;;;;236.00;38.53;;;-3.30;99.90;;;;;;4160617;28;20333;-66
2022/11/29 05:52:29;;;;;;;234.73;38.87;;;-3.30;99.90;;;;;;4161344;28;20279;-64
2022/11/29 05:54:45;;;;;;;262.40;38.53;;;-3.30;99.90;;;;;;4151349;28;20333;-63
2022/11/29 05:57:01;;;;;;;255.37;39.10;;;-3.20;99.90;;;;;;4145195;28;20291;-66
2022/11/29 05:59:10;;;;;;;202.83;40.83;;;-3.20;99.90;;;;;;4144305;28;20310;-65
2022/11/29 06:01:24;;;;;;;250.67;36.93;;;-3.20;99.90;;;;;;4159025;28;20713;-64
2022/11/29 06:03:31;;;;;;;266.50;39.40;;;-3.10;99.90;;;;;;4160607;28;20263;-64
2022/11/29 06:05:45;;;;;;;253.67;41.93;;;-3.20;99.90;;;;;;4161375;28;20286;-64
2022/11/29 06:08:07;;;;;;;275.33;41.33;;;-3.10;99.90;;;;;;4159988;28;20828;-65
2022/11/29 06:10:12;;;;;;;259.33;40.67;;;-3.10;99.90;;;;;;4143285;28;20330;-64
2022/11/29 06:12:22;;;;;;;275.53;44.00;;;-3.10;99.90;;;;;;4160055;28;20662;-64
2022/11/29 06:14:42;;;;;;;243.65;42.28;;;-3.00;99.90;;;;;;4145256;28;20264;-63
2022/11/29 06:17:24;;;;;;;177.37;40.47;;;-3.00;99.90;;;;;;4144225;28;20470;-64
2022/11/29 06:19:52;;;;;;;222.03;40.90;;;-2.90;99.90;;;;;;4143660;28;20267;-64
2022/11/29 06:22:36;;;;;;;170.83;33.97;;;-2.90;99.90;;;;;;4145132;28;20330;-64
2022/11/29 06:24:55;;;;;;;210.20;36.47;;;-2.80;99.90;;;;;;4144179;28;20801;-64
2022/11/29 06:27:28;;;;;;;201.30;39.63;;;-2.80;99.90;;;;;;4144793;28;20311;-64
2022/11/29 06:29:48;;;;;;;230.40;42.37;;;-2.80;99.90;;;;;;4149758;28;20291;-63
2022/11/29 06:32:12;;;;;;;237.53;38.43;;;-2.90;99.90;;;;;;4160588;28;20278;-67
2022/11/29 06:34:15;;;;;;;275.90;39.97;;;-2.80;99.90;;;;;;4152172;28;20585;-62
2022/11/29 06:36:43;;;;;;;247.00;36.80;;;-2.90;99.90;;;;;;4160122;28;20279;-63
2022/11/29 06:38:45;;;;;;;194.30;34.20;;;-2.90;99.90;;;;;;4159785;28;20650;-65
2022/11/29 06:40:47;;;;;;;155.07;32.73;;;-2.90;99.90;;;;;;4158925;28;20274;-64
2022/11/29 06:42:48;;;;;;;277.93;37.00;;;-2.80;99.90;;;;;;4158400;28;20709;-66
2022/11/29 06:44:49;;;;;;;238.23;37.33;;;-2.80;99.90;;;;;;4159637;28;20270;-65
2022/11/29 06:47:08;;;;;;;205.67;35.90;;;-2.80;99.90;;;;;;4159648;28;20303;-65
2022/11/29 06:49:24;;;;;;;352.30;42.33;;;-2.80;99.90;;;;;;4160838;28;20275;-67
2022/11/29 06:51:46;;;;;;;160.70;31.43;;;-2.90;99.90;;;;;;4159084;28;20670;-67
2022/11/29 06:54:13;;;;;;;370.73;44.43;;;-2.90;99.90;;;;;;4160593;28;20271;-66
2022/11/29 06:56:22;;;;;;;164.47;33.17;;;-2.90;99.90;;;;;;4150063;28;20817;-65
2022/11/29 06:58:53;;;;;;;325.00;45.17;;;-2.90;99.90;;;;;;4160147;28;20263;-65
2022/11/29 07:01:13;;;;;;;301.23;45.37;;;-2.90;99.90;;;;;;4161098;28;20263;-66
2022/11/29 07:03:32;;;;;;;180.70;33.67;;;-2.90;99.90;;;;;;4162594;28;20278;-66
2022/11/29 07:05:34;;;;;;;197.47;33.70;;;-2.90;99.90;;;;;;4159214;28;20278;-64
2022/11/29 07:07:36;;;;;;;232.70;38.93;;;-3.00;99.90;;;;;;4166158;28;20277;-65
2022/11/29 07:09:37;;;;;;;126.50;37.37;;;-2.90;99.90;;;;;;4157526;28;20285;-64
2022/11/29 07:11:39;;;;;;;257.17;48.43;;;-2.90;99.90;;;;;;4166177;28;20328;-64
2022/11/29 07:13:41;;;;;;;137.53;36.53;;;-2.80;99.90;;;;;;4161475;28;20672;-64
2022/11/29 07:16:01;;;;;;;338.07;49.77;;;-2.80;99.90;;;;;;4159345;28;20344;-64
2022/11/29 07:18:29;;;;;;;263.25;43.53;;;-2.80;99.90;;;;;;4158697;28;20283;-67
2022/11/29 07:21:00;;;;;;;188.13;46.47;;;-2.80;99.90;;;;;;4162629;28;20436;-64
2022/11/29 07:23:01;;;;;;;;;;;-2.70;99.90;;;;;;4161049;28;20332;-65
2022/11/29 07:25:17;;;;;;;;;;;-2.70;99.90;;;;;;4142300;28;20379;-64
2022/11/29 07:27:27;;;;;;;168.37;41.43;;;-2.60;99.90;;;;;;4152661;28;20372;-66
2022/11/29 07:29:38;;;;;;;316.77;42.13;;;-2.60;99.90;;;;;;4143812;28;20284;-62
2022/11/29 07:31:39;;;;;;;382.90;44.90;;;-2.70;99.90;;;;;;4147230;28;20038;-63
2022/11/29 07:33:59;;;;;;;147.77;37.70;;;-2.70;99.90;;;;;;4161016;28;20025;-63
2022/11/29 07:36:17;;;;;;;105.00;39.33;;;-2.70;99.90;;;;;;4163318;28;20259;-62
2022/11/29 07:38:45;;;;;;;116.33;38.43;;;-2.60;99.90;;;;;;4162193;28;20025;-63
2022/11/29 07:41:09;;;;;;;147.50;40.73;;;-2.40;99.90;;;;;;4145596;28;20267;-62
2022/11/29 07:43:16;;;;;;;223.40;43.77;;;-2.30;99.90;;;;;;4162284;28;20316;-63
2022/11/29 07:45:28;;;;;;;286.73;49.83;;;-2.20;99.90;;;;;;4162455;28;20282;-63
2022/11/29 07:47:29;;;;;;;286.50;44.77;;;-2.30;99.90;;;;;;4162008;28;20283;-63
2022/11/29 07:49:31;;;;;;;196.77;41.67;;;-2.30;99.90;;;;;;4163165;28;20270;-62
2022/11/29 07:51:32;;;;;;;270.27;49.67;;;-2.40;99.90;;;;;;4162448;28;20258;-63
2022/11/29 07:53:40;;;;;;;319.03;49.60;;;-2.30;99.90;;;;;;4163178;28;20317;-63
2022/11/29 07:55:41;;;;;;;181.03;44.83;;;-2.30;99.90;;;;;;4161418;28;20325;-64
2022/11/29 07:57:42;;;;;;;250.87;51.63;;;-2.30;99.90;;;;;;4161883;28;20279;-62
2022/11/29 07:59:43;;;;;;;172.67;47.83;;;-2.30;99.90;;;;;;4161666;28;20275;-62
2022/11/29 08:01:45;;;;;;;245.30;48.73;;;-2.20;99.90;;;;;;4162124;28;20287;-64
2022/11/29 08:03:46;;;;;;;166.10;46.40;;;-2.20;99.90;;;;;;4161475;28;20262;-63
2022/11/29 08:05:47;;;;;;;187.23;40.30;;;-2.10;99.90;;;;;;4145755;28;20287;-62
2022/11/29 08:07:48;;;;;;;177.83;39.00;;;-2.10;99.90;;;;;;4162356;28;20274;-62
2022/11/29 08:09:49;;;;;;;149.27;35.03;;;-2.10;99.90;;;;;;4162535;28;20755;-63
2022/11/29 08:11:51;;;;;;;190.50;36.87;;;-2.20;99.90;;;;;;4143974;28;20272;-62
2022/11/29 08:14:00;;;;;;;446.17;45.93;;;-2.20;99.90;;;;;;4161681;28;20325;-63
2022/11/29 08:16:01;;;;;;;202.17;35.87;;;-2.20;99.90;;;;;;4161766;28;20324;-63
2022/11/29 08:18:03;;;;;;;171.23;37.40;;;-2.20;99.90;;;;;;4172802;28;20656;-63
2022/11/29 08:20:05;;;;;;;317.90;43.47;;;-2.20;99.90;;;;;;4161288;28;20270;-62
2022/11/29 08:22:07;;;;;;;167.13;34.93;;;-2.10;99.90;;;;;;4161116;28;20266;-62
2022/11/29 08:24:08;;;;;;;217.63;40.57;;;-2.10;99.90;;;;;;4162729;28;20271;-64
2022/11/29 08:26:09;;;;;;;247.03;44.13;;;-2.00;99.90;;;;;;4161388;28;20291;-63
2022/11/29 08:28:10;;;;;;;166.33;39.43;;;-2.10;99.90;;;;;;4162874;28;21178;-63
2022/11/29 08:30:12;;;;;;;216.63;41.53;;;-1.90;99.90;;;;;;4161312;28;20821;-63
2022/11/29 08:32:14;;;;;;;216.37;43.07;;;-1.90;99.90;;;;;;4162903;28;20337;-62
2022/11/29 08:34:15;;;;;;;150.87;42.10;;;-2.00;99.90;;;;;;4160369;28;20608;-62
2022/11/29 08:36:18;;;;;;;216.97;45.20;;;-1.90;99.90;;;;;;4162886;28;20270;-62
2022/11/29 08:38:19;;;;;;;144.50;43.47;;;-1.70;99.90;;;;;;4163893;28;20615;-62
2022/11/29 08:40:21;;;;;;;155.27;39.60;;;-1.60;99.90;;;;;;4160759;28;20662;-63
2022/11/29 08:42:22;;;;;;;125.10;40.00;;;-1.50;99.90;;;;;;4160602;28;20271;-66
2022/11/29 08:44:23;;;;;;;134.30;41.97;;;-1.50;99.90;;;;;;4162328;28;20797;-62
2022/11/29 08:47:34;;;;;;;106.20;39.70;;;-1.50;99.90;;;;;;4161944;28;20717;-62
2022/11/29 08:48:46;;;;;;;;;;;-1.40;99.90;;;;;;4163174;28;20282;-64
2022/11/29 08:50:51;;;;;;;121.87;32.30;;;-1.20;99.90;;;;;;4161893;28;20419;-62
2022/11/29 08:55:12;;;;;;;143.63;33.70;;;-1.30;99.90;;;;;;4162222;28;20321;-63
2022/11/29 08:57:13;;;;;;;87.40;27.20;;;-1.30;99.90;;;;;;4162343;28;20356;-61
2022/11/29 08:59:14;;;;;;;158.10;34.03;;;-1.30;99.90;;;;;;4166864;28;20270;-63
2022/11/29 09:01:17;;;;;;;86.13;29.37;;;-1.30;99.90;;;;;;4163203;28;20263;-63
2022/11/29 09:05:38;;;;;;;124.80;31.30;;;-1.30;99.90;;;;;;4161980;28;20325;-63
2022/11/29 09:07:40;;;;;;;89.40;31.10;;;-1.20;99.90;;;;;;4162319;28;20324;-62
2022/11/29 09:09:41;;;;;;;78.97;31.07;;;-1.20;99.90;;;;;;4161013;28;20336;-63
2022/11/29 09:11:43;;;;;;;82.93;31.43;;;-1.10;99.90;;;;;;4161728;28;20727;-62
2022/11/29 09:13:46;;;;;;;91.40;31.53;;;-1.00;99.90;;;;;;4162075;28;20271;-65
2022/11/29 09:15:48;;;;;;;66.23;26.60;;;-0.90;99.90;;;;;;4162067;28;20275;-62
2022/11/29 09:17:49;;;;;;;67.00;28.67;;;-0.80;99.90;;;;;;4161207;28;20262;-62
2022/11/29 09:19:50;;;;;;;71.90;31.87;;;-0.70;99.90;;;;;;4162453;28;20309;-63
2022/11/29 09:21:51;;;;;;;87.87;32.67;;;-0.60;99.90;;;;;;4142845;28;20310;-63
2022/11/29 09:23:57;;;;;;;72.77;31.87;;;-0.50;99.90;;;;;;4162460;28;20266;-64
2022/11/29 09:25:58;;;;;;;75.83;34.87;;;-0.30;99.90;;;;;;4161572;28;20341;-62
2022/11/29 09:28:01;;;;;;;100.10;35.63;;;-0.20;99.90;;;;;;4161234;28;20821;-63
2022/11/29 09:30:03;;;;;;;81.73;32.80;;;-0.20;99.90;;;;;;4161076;28;20317;-63
2022/11/29 09:32:04;;;;;;;78.40;34.63;;;0.00;99.90;;;;;;4170494;28;20373;-66
2022/11/29 09:34:05;;;;;;;78.03;36.97;;;0.10;99.90;;;;;;4177187;28;20269;-65
2022/11/29 09:36:09;;;;;;;77.73;35.70;;;0.30;99.90;;;;;;4177967;28;20270;-62
2022/11/29 09:38:11;;;;;;;71.50;31.97;;;0.60;99.90;;;;;;4160767;28;20340;-62
2022/11/29 09:40:19;;;;;;;81.17;34.57;;;0.80;99.90;;;;;;4160308;28;20305;-62
2022/11/29 09:42:39;;;;;;;74.97;31.97;;;0.90;99.90;;;;;;4161675;28;20600;-63
2022/11/29 09:45:03;;;;;;;68.00;29.63;;;1.00;99.90;;;;;;4159055;28;20747;-62
2022/11/29 09:47:13;;;;;;;59.77;25.20;;;1.10;99.90;;;;;;4160276;28;20298;-62
2022/11/29 09:49:42;;;;;;;49.57;24.00;;;1.20;99.90;;;;;;4167871;28;20295;-62
2022/11/29 09:51:52;;;;;;;38.47;20.23;;;1.20;99.90;;;;;;4141860;28;20296;-62
2022/11/29 09:54:04;;;;;;;45.60;22.00;;;1.00;99.90;;;;;;4159582;28;20273;-61
2022/11/29 09:56:29;;;;;;;35.83;19.50;;;1.00;99.90;;;;;;4167696;28;20037;-64
2022/11/29 09:58:48;;;;;;;40.20;20.37;;;1.10;99.90;;;;;;4172522;28;20317;-64
2022/11/29 10:00:55;;;;;;;34.83;17.87;;;1.20;99.90;;;;;;4150071;28;20270;-62
2022/11/29 10:03:12;;;;;;;44.43;20.70;;;1.20;99.90;;;;;;4155919;28;20468;-63
2022/11/29 10:05:36;;;;;;;40.20;19.97;;;1.40;99.90;;;;;;4155152;28;20325;-63
2022/11/29 10:07:42;;;;;;;35.50;17.53;;;1.50;99.90;;;;;;4160993;28;20372;-63
2022/11/29 10:09:48;;;;;;;33.93;19.23;;;1.50;99.90;;;;;;4159984;28;20263;-65
2022/11/29 10:12:01;;;;;;;35.00;18.20;;;1.50;99.90;;;;;;4161412;28;20541;-64
2022/11/29 10:14:27;;;;;;;36.93;18.13;;;1.50;99.90;;;;;;4142643;28;20722;-67
2022/11/29 10:16:58;;;;;;;38.87;19.23;;;1.60;99.90;;;;;;4160549;28;20302;-63
2022/11/29 10:19:09;;;;;;;34.67;18.77;;;1.70;99.90;;;;;;4142345;28;20287;-63
2022/11/29 10:21:14;;;;;;;30.17;17.10;;;1.80;99.90;;;;;;4160825;28;20267;-64
2022/11/29 10:23:21;;;;;;;36.23;19.07;;;2.00;99.90;;;;;;4160206;28;20025;-64
2022/11/29 10:25:33;;;;;;;31.77;16.63;;;2.00;99.90;;;;;;4161181;28;20314;-64
2022/11/29 10:27:38;;;;;;;38.45;17.45;;;2.10;99.90;;;;;;4159606;28;20302;-64
2022/11/29 10:29:39;;;;;;;30.37;17.37;;;2.30;99.90;;;;;;4160460;28;20123;-63
2022/11/29 10:31:43;;;;;;;31.80;17.50;;;2.40;99.90;;;;;;4159449;28;20844;-64
2022/11/29 10:33:45;;;;;;;34.47;17.20;;;2.50;99.90;;;;;;4160570;28;20317;-64
2022/11/29 10:35:49;;;;;;;35.57;17.90;;;2.50;99.90;;;;;;4160299;28;20281;-64
2022/11/29 10:37:55;;;;;;;29.20;16.30;;;2.70;99.90;;;;;;4160132;28;21191;-63
2022/11/29 10:40:03;;;;;;;34.40;16.13;;;2.80;99.90;;;;;;4159460;28;20270;-66
2022/11/29 10:42:47;;;;;;;29.37;17.53;;;3.00;99.90;;;;;;4146011;28;20287;-64
2022/11/29 10:44:32;;;;;;;28.33;15.87;;;3.00;99.90;;;;;;4143546;28;20329;-63
2022/11/29 10:46:35;;;;;;;27.57;15.60;;;3.20;99.90;;;;;;4151782;28;20353;-67
2022/11/29 10:48:36;;;;;;;35.33;17.40;;;3.20;99.90;;;;;;4158841;28;20286;-63
2022/11/29 10:50:43;;;;;;;28.53;14.77;;;3.30;99.90;;;;;;4160493;28;20271;-64
2022/11/29 10:52:44;;;;;;;32.03;17.13;;;3.40;99.90;;;;;;4158546;28;20444;-64
2022/11/29 10:54:47;;;;;;;30.10;16.17;;;3.40;99.90;;;;;;4160606;28;20325;-63
2022/11/29 10:56:48;;;;;;;34.50;16.47;;;3.50;99.90;;;;;;4160742;28;20766;-63
2022/11/29 10:58:53;;;;;;;30.80;16.50;;;3.60;99.90;;;;;;4160648;28;20278;-64
2022/11/29 11:01:00;;;;;;;26.07;14.17;;;3.70;99.90;;;;;;4160120;28;20684;-64
2022/11/29 11:03:34;;;;;;;29.07;15.77;;;3.80;99.90;;;;;;4161324;28;20267;-66
2022/11/29 11:05:35;;;;;;;29.83;15.47;;;4.00;99.90;;;;;;4129546;28;20349;-64
2022/11/29 11:07:37;;;;;;;25.10;12.93;;;4.10;99.90;;;;;;4164389;28;20286;-66
2022/11/29 11:09:47;;;;;;;23.93;13.40;;;4.20;99.90;;;;;;4162629;28;20340;-65
2022/11/29 11:11:54;;;;;;;23.35;11.88;;;4.30;99.90;;;;;;4163354;28;20282;-63